createdAt,value
2018-06-04T00:00:03.426Z,18.82
2018-06-04T00:02:32.151Z,18.74
2018-06-04T00:05:00.875Z,18.72
2018-06-04T00:07:29.395Z,18.64
2018-06-04T00:09:58.560Z,18.56
2018-06-04T00:12:27.062Z,18.50
2018-06-04T00:14:55.783Z,18.49
2018-06-04T00:17:24.467Z,18.51
2018-06-04T00:19:53.152Z,18.49
2018-06-04T00:22:21.822Z,18.41
2018-06-04T00:24:50.512Z,18.34
2018-06-04T00:27:19.311Z,18.29
2018-06-04T00:29:47.978Z,18.23
2018-06-04T00:32:16.735Z,18.13
2018-06-04T00:34:45.439Z,18.10
2018-06-04T00:37:14.138Z,18.08
2018-06-04T00:39:42.901Z,18.02
2018-06-04T00:42:11.573Z,17.99
2018-06-04T00:44:40.256Z,17.91
2018-06-04T00:47:08.931Z,17.86
2018-06-04T00:49:37.425Z,17.80
2018-06-04T00:52:06.206Z,17.77
2018-06-04T00:54:34.899Z,17.72
2018-06-04T00:57:03.704Z,17.65
2018-06-04T00:59:32.386Z,17.67
2018-06-04T01:02:01.089Z,17.60
2018-06-04T01:04:29.778Z,16.61
2018-06-04T01:06:58.466Z,17.47
2018-06-04T01:09:27.179Z,17.48
2018-06-04T01:11:55.879Z,17.52
2018-06-04T01:14:24.584Z,17.50
2018-06-04T01:16:53.089Z,17.48
2018-06-04T01:19:21.776Z,17.45
2018-06-04T01:21:50.454Z,17.45
2018-06-04T01:24:19.111Z,17.46
2018-06-04T01:26:47.621Z,17.34
2018-06-04T01:29:16.281Z,17.34
2018-06-04T01:31:44.761Z,17.30
2018-06-04T01:34:13.266Z,17.28
2018-06-04T01:36:41.987Z,17.28
2018-06-04T01:39:10.697Z,17.31
2018-06-04T01:41:39.379Z,17.42
2018-06-04T01:44:08.080Z,17.33
2018-06-04T01:46:36.795Z,17.24
2018-06-04T01:49:05.534Z,17.22
2018-06-04T01:51:34.232Z,17.18
2018-06-04T01:54:02.927Z,17.16
2018-06-04T01:56:31.429Z,17.11
2018-06-04T01:59:00.114Z,17.05
2018-06-04T02:01:28.796Z,17.00
2018-06-04T02:03:57.492Z,16.95
2018-06-04T02:06:26.171Z,16.85
2018-06-04T02:08:54.838Z,16.77
2018-06-04T02:11:23.532Z,16.77
2018-06-04T02:13:52.240Z,16.71
2018-06-04T02:16:20.954Z,16.68
2018-06-04T02:18:49.651Z,16.59
2018-06-04T02:21:18.330Z,16.53
2018-06-04T02:23:46.995Z,16.46
2018-06-04T02:26:15.765Z,16.38
2018-06-04T02:28:44.451Z,16.32
2018-06-04T02:31:13.115Z,16.30
2018-06-04T02:33:41.837Z,16.33
2018-06-04T02:36:10.495Z,16.29
2018-06-04T02:38:39.170Z,16.23
2018-06-04T02:41:07.668Z,16.27
2018-06-04T02:43:36.350Z,16.26
2018-06-04T02:46:05.163Z,16.24
2018-06-04T02:48:33.896Z,16.38
2018-06-04T02:51:02.632Z,16.29
2018-06-04T02:53:31.342Z,16.20
2018-06-04T02:56:00.075Z,16.22
2018-06-04T02:58:28.757Z,16.19
2018-06-04T03:00:57.482Z,16.20
2018-06-04T03:03:26.195Z,16.22
2018-06-04T03:05:54.870Z,16.16
2018-06-04T03:08:23.532Z,16.16
2018-06-04T03:10:52.505Z,16.15
2018-06-04T03:13:21.202Z,16.18
2018-06-04T03:15:49.869Z,16.26
2018-06-04T03:18:18.620Z,16.34
2018-06-04T03:20:47.384Z,16.43
2018-06-04T03:23:16.122Z,16.48
2018-06-04T03:25:44.845Z,16.57
2018-06-04T03:28:13.559Z,16.76
2018-06-04T03:30:42.275Z,16.74
2018-06-04T03:33:11.006Z,16.76
2018-06-04T03:35:39.692Z,16.84
2018-06-04T03:38:08.401Z,16.85
2018-06-04T03:40:37.072Z,17.11
2018-06-04T03:43:05.779Z,17.09
2018-06-04T03:45:34.444Z,17.14
2018-06-04T03:48:03.130Z,17.36
2018-06-04T03:50:31.805Z,17.38
2018-06-04T03:53:00.531Z,17.46
2018-06-04T03:55:29.206Z,17.48
2018-06-04T03:57:57.894Z,17.65
2018-06-04T04:00:26.566Z,17.46
2018-06-04T04:02:55.316Z,17.27
2018-06-04T04:05:24.004Z,17.38
2018-06-04T04:07:52.678Z,17.69
2018-06-04T04:10:21.371Z,17.98
2018-06-04T04:12:50.065Z,18.14
2018-06-04T04:15:18.731Z,18.33
2018-06-04T04:17:47.406Z,18.49
2018-06-04T04:20:16.093Z,18.56
2018-06-04T04:22:45.651Z,18.58
2018-06-04T04:25:15.131Z,18.59
2018-06-04T04:27:43.808Z,18.33
2018-06-04T04:30:12.491Z,18.05
2018-06-04T04:32:41.198Z,17.85
2018-06-04T04:35:09.859Z,17.73
2018-06-04T04:37:38.554Z,17.83
2018-06-04T04:40:07.263Z,17.88
2018-06-04T04:42:35.952Z,17.94
2018-06-04T04:45:04.741Z,18.06
2018-06-04T04:47:33.458Z,18.10
2018-06-04T04:50:01.992Z,18.17
2018-06-04T04:52:30.673Z,18.32
2018-06-04T04:54:59.359Z,18.51
2018-06-04T04:57:28.062Z,18.60
2018-06-04T04:59:56.754Z,18.69
2018-06-04T05:02:25.426Z,18.81
2018-06-04T05:04:54.099Z,18.23
2018-06-04T05:07:22.872Z,19.20
2018-06-04T05:09:51.606Z,19.42
2018-06-04T05:12:20.279Z,19.71
2018-06-04T05:14:48.987Z,20.25
2018-06-04T05:17:17.471Z,20.44
2018-06-04T05:19:46.246Z,20.64
2018-06-04T05:22:14.914Z,20.97
2018-06-04T05:24:43.676Z,21.29
2018-06-04T05:27:12.414Z,21.51
2018-06-04T05:29:40.949Z,21.82
2018-06-04T05:32:11.138Z,22.01
2018-06-04T05:34:39.849Z,22.39
2018-06-04T05:37:08.664Z,22.81
2018-06-04T05:39:37.387Z,23.03
2018-06-04T05:42:06.146Z,23.07
2018-06-04T05:44:34.830Z,23.27
2018-06-04T05:47:03.577Z,23.34
2018-06-04T05:49:32.253Z,23.52
2018-06-04T05:52:00.999Z,23.40
2018-06-04T05:54:29.799Z,23.67
2018-06-04T05:56:58.499Z,23.69
2018-06-04T05:59:27.192Z,23.91
2018-06-04T06:01:55.909Z,24.05
2018-06-04T06:04:24.669Z,23.61
2018-06-04T06:06:53.387Z,23.88
2018-06-04T06:09:22.080Z,23.95
2018-06-04T06:11:50.823Z,24.23
2018-06-04T06:14:19.571Z,24.07
2018-06-04T06:16:48.289Z,24.70
2018-06-04T06:19:16.974Z,25.03
2018-06-04T06:21:45.689Z,25.21
2018-06-04T06:24:14.421Z,25.18
2018-06-04T06:26:42.967Z,25.25
2018-06-04T06:29:12.616Z,25.45
2018-06-04T06:31:41.348Z,25.51
2018-06-04T06:34:10.083Z,25.55
2018-06-04T06:36:38.826Z,25.53
2018-06-04T06:39:09.099Z,25.73
2018-06-04T06:41:37.803Z,25.59
2018-06-04T06:44:06.354Z,25.44
2018-06-04T06:46:35.054Z,25.43
2018-06-04T06:49:03.626Z,25.66
2018-06-04T06:51:32.306Z,25.80
2018-06-04T06:54:01.125Z,25.49
2018-06-04T06:56:29.839Z,25.19
2018-06-04T06:58:58.674Z,24.97
2018-06-04T07:01:27.396Z,25.03
2018-06-04T07:03:56.294Z,25.22
2018-06-04T07:06:24.984Z,25.12
2018-06-04T07:08:53.788Z,25.43
2018-06-04T07:11:23.173Z,25.37
2018-06-04T07:13:51.924Z,25.09
2018-06-04T07:16:20.491Z,25.15
2018-06-04T07:18:49.211Z,24.96
2018-06-04T07:21:17.947Z,24.78
2018-06-04T07:23:46.679Z,24.95
2018-06-04T07:26:31.002Z,24.85
2018-06-04T07:29:00.029Z,24.85
2018-06-04T07:31:28.761Z,24.40
2018-06-04T07:33:57.525Z,24.39
2018-06-04T07:36:26.281Z,24.49
2018-06-04T07:38:55.017Z,24.69
2018-06-04T07:41:23.797Z,24.68
2018-06-04T07:43:52.576Z,24.81
2018-06-04T07:46:21.372Z,24.92
2018-06-04T07:48:50.137Z,24.64
2018-06-04T07:51:18.861Z,24.44
2018-06-04T07:53:47.559Z,24.31
2018-06-04T07:56:16.392Z,24.43
2018-06-04T07:58:45.166Z,24.54
2018-06-04T08:01:13.691Z,24.58
2018-06-04T08:03:42.486Z,24.58
2018-06-04T08:06:11.215Z,24.54
2018-06-04T08:08:40.329Z,24.69
2018-06-04T08:11:09.131Z,24.67
2018-06-04T08:13:37.819Z,24.87
2018-06-04T08:16:06.579Z,24.96
2018-06-04T08:18:35.312Z,25.36
2018-06-04T08:21:04.054Z,25.68
2018-06-04T08:23:32.801Z,26.26
2018-06-04T08:26:01.587Z,26.34
2018-06-04T08:28:30.317Z,27.11
2018-06-04T08:30:59.064Z,27.51
2018-06-04T08:33:27.806Z,27.89
2018-06-04T08:35:56.521Z,27.13
2018-06-04T08:38:25.324Z,27.45
2018-06-04T08:40:54.057Z,28.24
2018-06-04T08:43:22.802Z,27.91
2018-06-04T08:45:51.545Z,27.92
2018-06-04T08:48:20.319Z,28.60
2018-06-04T08:50:49.017Z,28.92
2018-06-04T08:53:17.740Z,29.17
2018-06-04T08:55:46.462Z,29.10
2018-06-04T08:58:15.197Z,29.29
2018-06-04T09:00:43.931Z,29.78
2018-06-04T09:03:12.675Z,30.13
2018-06-04T09:05:41.471Z,30.13
2018-06-04T09:08:10.236Z,29.81
2018-06-04T09:10:38.991Z,30.06
2018-06-04T09:13:07.756Z,29.78
2018-06-04T09:15:36.350Z,30.10
2018-06-04T09:18:04.996Z,30.27
2018-06-04T09:20:33.757Z,29.86
2018-06-04T09:23:02.499Z,29.42
2018-06-04T09:25:30.979Z,29.36
2018-06-04T09:27:59.701Z,29.57
2018-06-04T09:30:28.495Z,29.58
2018-06-04T09:32:57.239Z,29.69
2018-06-04T09:35:26.289Z,29.23
2018-06-04T09:37:55.012Z,27.97
2018-06-04T09:40:23.734Z,27.77
2018-06-04T09:42:52.461Z,28.38
2018-06-04T09:45:21.161Z,29.20
2018-06-04T09:47:49.907Z,29.47
2018-06-04T09:50:18.619Z,29.10
2018-06-04T09:52:47.339Z,29.23
2018-06-04T09:55:16.042Z,28.87
2018-06-04T09:57:44.827Z,28.60
2018-06-04T10:00:18.079Z,29.33
2018-06-04T10:02:46.999Z,29.72
2018-06-04T10:05:18.315Z,30.23
2018-06-04T10:07:47.219Z,30.07
2018-06-04T10:10:15.979Z,29.43
2018-06-04T10:12:44.734Z,29.66
2018-06-04T10:15:13.514Z,30.24
2018-06-04T10:17:42.239Z,30.74
2018-06-04T10:20:11.441Z,31.84
2018-06-04T10:22:40.351Z,32.40
2018-06-04T10:25:09.062Z,32.65
2018-06-04T10:27:37.787Z,31.53
2018-06-04T10:30:06.507Z,31.80
2018-06-04T10:32:35.259Z,30.71
2018-06-04T10:35:07.859Z,30.74
2018-06-04T10:37:36.669Z,31.29
2018-06-04T10:40:05.417Z,30.53
2018-06-04T10:42:34.124Z,29.78
2018-06-04T10:45:03.387Z,29.22
2018-06-04T10:47:35.191Z,28.42
2018-06-04T10:50:04.000Z,29.28
2018-06-04T10:52:32.719Z,30.02
2018-06-04T10:55:01.438Z,29.63
2018-06-04T10:57:30.234Z,29.27
2018-06-04T10:59:59.004Z,29.66
2018-06-04T11:02:27.734Z,30.01
2018-06-04T11:04:56.292Z,30.59
2018-06-04T11:07:25.046Z,31.17
2018-06-04T11:09:54.302Z,30.99
2018-06-04T11:12:23.096Z,31.31
2018-06-04T11:14:51.594Z,31.26
2018-06-04T11:17:20.333Z,30.80
2018-06-04T11:19:49.094Z,30.46
2018-06-04T11:22:17.869Z,30.71
2018-06-04T11:24:46.649Z,30.97
2018-06-04T11:27:15.327Z,30.95
2018-06-04T11:29:44.031Z,31.18
2018-06-04T11:32:14.679Z,31.31
2018-06-04T11:34:43.899Z,31.38
2018-06-04T11:37:12.667Z,31.43
2018-06-04T11:39:41.352Z,31.42
2018-06-04T11:42:10.041Z,30.92
2018-06-04T11:44:38.757Z,30.17
2018-06-04T11:47:07.475Z,30.92
2018-06-04T11:49:36.212Z,31.29
2018-06-04T11:52:04.959Z,30.81
2018-06-04T11:54:33.668Z,30.75
2018-06-04T11:57:02.442Z,30.92
2018-06-04T11:59:31.155Z,31.08
2018-06-04T12:01:59.866Z,32.11
2018-06-04T12:04:28.571Z,31.53
2018-06-04T12:06:57.337Z,30.90
2018-06-04T12:09:26.221Z,30.80
2018-06-04T12:11:54.945Z,30.75
2018-06-04T12:14:23.654Z,30.93
2018-06-04T12:16:52.391Z,31.21
2018-06-04T12:19:20.943Z,30.75
2018-06-04T12:21:49.679Z,31.30
2018-06-04T12:24:18.353Z,31.03
2018-06-04T12:26:47.078Z,31.85
2018-06-04T12:29:15.952Z,31.65
2018-06-04T12:31:45.311Z,30.80
2018-06-04T12:34:14.073Z,31.38
2018-06-04T12:36:42.774Z,30.00
2018-06-04T12:39:12.066Z,30.29
2018-06-04T12:41:40.853Z,30.69
2018-06-04T12:44:09.558Z,31.01
2018-06-04T12:46:38.291Z,31.77
2018-06-04T12:49:07.038Z,31.35
2018-06-04T12:51:35.576Z,32.04
2018-06-04T12:54:04.321Z,32.21
2018-06-04T12:56:33.389Z,32.97
2018-06-04T12:59:02.131Z,33.47
2018-06-04T13:01:30.914Z,32.18
2018-06-04T13:03:59.661Z,31.58
2018-06-04T13:06:28.373Z,32.51
2018-06-04T13:08:57.088Z,32.68
2018-06-04T13:11:25.766Z,32.01
2018-06-04T13:13:54.589Z,31.85
2018-06-04T13:16:23.335Z,32.36
2018-06-04T13:18:52.083Z,32.18
2018-06-04T13:21:28.275Z,31.50
2018-06-04T13:23:57.014Z,30.72
2018-06-04T13:26:25.843Z,31.21
2018-06-04T13:28:54.728Z,31.83
2018-06-04T13:31:23.526Z,31.67
2018-06-04T13:33:52.287Z,31.59
2018-06-04T13:36:20.818Z,31.55
2018-06-04T13:38:49.623Z,32.01
2018-06-04T13:41:18.906Z,32.15
2018-06-04T13:43:47.687Z,31.55
2018-06-04T13:46:16.999Z,31.31
2018-06-04T13:48:45.819Z,31.65
2018-06-04T13:51:14.695Z,31.95
2018-06-04T13:53:43.514Z,32.82
2018-06-04T13:56:12.409Z,32.36
2018-06-04T13:58:41.133Z,31.83
2018-06-04T14:01:09.949Z,31.44
2018-06-04T14:03:38.748Z,31.42
2018-06-04T14:06:07.533Z,31.71
2018-06-04T14:08:36.367Z,31.60
2018-06-04T14:11:05.156Z,31.42
2018-06-04T14:13:33.913Z,31.03
2018-06-04T14:16:02.603Z,30.60
2018-06-04T14:18:31.375Z,30.38
2018-06-04T14:21:00.161Z,30.37
2018-06-04T14:23:28.705Z,30.01
2018-06-04T14:25:57.469Z,30.07
2018-06-04T14:28:26.241Z,29.94
2018-06-04T14:30:55.164Z,30.28
2018-06-04T14:33:23.891Z,30.13
2018-06-04T14:35:52.641Z,29.82
2018-06-04T14:38:21.364Z,30.24
2018-06-04T14:40:50.172Z,30.22
2018-06-04T14:43:18.733Z,29.54
2018-06-04T14:45:47.496Z,29.21
2018-06-04T14:48:16.844Z,29.71
2018-06-04T14:50:45.913Z,29.72
2018-06-04T14:53:14.733Z,29.79
2018-06-04T14:55:43.595Z,30.37
2018-06-04T14:58:12.688Z,30.70
2018-06-04T15:00:41.458Z,30.83
2018-06-04T15:03:10.583Z,31.41
2018-06-04T15:05:39.403Z,30.60
2018-06-04T15:08:08.253Z,30.02
2018-06-04T15:10:37.024Z,29.30
2018-06-04T15:13:06.621Z,29.39
2018-06-04T15:15:35.423Z,28.66
2018-06-04T15:18:04.303Z,28.51
2018-06-04T15:20:33.079Z,28.43
2018-06-04T15:23:01.826Z,28.14
2018-06-04T15:25:30.593Z,28.10
2018-06-04T15:27:59.386Z,28.01
2018-06-04T15:30:28.146Z,27.65
2018-06-04T15:32:56.974Z,27.47
2018-06-04T15:35:25.767Z,27.11
2018-06-04T15:37:54.837Z,27.24
2018-06-04T15:40:23.639Z,27.23
2018-06-04T15:42:52.489Z,27.26
2018-06-04T15:45:22.223Z,27.16
2018-06-04T15:47:50.987Z,27.06
2018-06-04T15:50:19.765Z,27.15
2018-06-04T15:52:48.498Z,26.83
2018-06-04T15:55:17.016Z,26.82
2018-06-04T15:57:45.748Z,26.73
2018-06-04T16:00:14.538Z,26.72
2018-06-04T16:02:43.388Z,26.33
2018-06-04T16:05:13.085Z,26.09
2018-06-04T16:07:41.950Z,25.98
2018-06-04T16:10:10.908Z,25.85
2018-06-04T16:12:40.294Z,25.98
2018-06-04T16:15:09.221Z,25.98
2018-06-04T16:17:37.950Z,26.07
2018-06-04T16:20:06.759Z,25.87
2018-06-04T16:22:35.521Z,25.81
2018-06-04T16:25:04.311Z,25.80
2018-06-04T16:27:33.099Z,25.95
2018-06-04T16:30:01.914Z,25.75
2018-06-04T16:32:30.800Z,25.78
2018-06-04T16:34:59.575Z,25.69
2018-06-04T16:37:28.364Z,25.80
2018-06-04T16:39:57.278Z,25.86
2018-06-04T16:42:26.341Z,26.03
2018-06-04T16:44:55.142Z,26.13
2018-06-04T16:47:23.833Z,26.01
2018-06-04T16:49:52.571Z,26.01
2018-06-04T16:52:22.083Z,26.10
2018-06-04T16:54:50.793Z,25.74
2018-06-04T16:57:19.531Z,25.68
2018-06-04T16:59:48.299Z,25.52
2018-06-04T17:02:17.033Z,25.78
2018-06-04T17:04:45.778Z,25.67
2018-06-04T17:07:14.545Z,25.58
2018-06-04T17:09:43.348Z,25.22
2018-06-04T17:12:12.099Z,25.19
2018-06-04T17:14:40.839Z,25.22
2018-06-04T17:17:09.581Z,25.21
2018-06-04T17:19:38.293Z,25.31
2018-06-04T17:22:07.087Z,25.07
2018-06-04T17:24:35.819Z,24.97
2018-06-04T17:27:04.580Z,24.98
2018-06-04T17:29:34.585Z,24.97
2018-06-04T17:32:03.317Z,24.91
2018-06-04T17:34:32.038Z,25.09
2018-06-04T17:37:00.784Z,24.97
2018-06-04T17:39:29.523Z,25.02
2018-06-04T17:41:58.283Z,24.89
2018-06-04T17:44:26.990Z,24.87
2018-06-04T17:46:55.776Z,24.91
2018-06-04T17:49:24.598Z,24.67
2018-06-04T17:51:53.365Z,24.51
2018-06-04T17:54:22.114Z,24.42
2018-06-04T17:56:50.930Z,24.34
2018-06-04T17:59:19.656Z,24.28
2018-06-04T18:01:48.381Z,24.25
2018-06-04T18:04:17.123Z,24.23
2018-06-04T18:06:45.636Z,24.13
2018-06-04T18:09:14.393Z,23.95
2018-06-04T18:11:42.936Z,23.74
2018-06-04T18:14:11.703Z,23.61
2018-06-04T18:16:40.498Z,23.53
2018-06-04T18:19:09.301Z,23.39
2018-06-04T18:21:38.078Z,23.31
2018-06-04T18:24:06.866Z,23.24
2018-06-04T18:26:35.669Z,23.18
2018-06-04T18:29:04.512Z,23.14
2018-06-04T18:31:33.285Z,23.20
2018-06-04T18:34:01.879Z,23.02
2018-06-04T18:36:30.614Z,22.98
2018-06-04T18:38:59.964Z,22.95
2018-06-04T18:41:28.773Z,22.81
2018-06-04T18:43:57.534Z,22.96
2018-06-04T18:46:26.291Z,22.89
2018-06-04T18:48:55.758Z,22.73
2018-06-04T18:51:24.466Z,22.88
2018-06-04T18:53:53.199Z,22.70
2018-06-04T18:56:21.973Z,22.62
2018-06-04T18:58:50.791Z,22.50
2018-06-04T19:01:19.556Z,22.48
2018-06-04T19:03:48.139Z,22.41
2018-06-04T19:06:16.950Z,22.42
2018-06-04T19:08:45.784Z,22.25
2018-06-04T19:11:14.559Z,22.21
2018-06-04T19:13:43.326Z,22.15
2018-06-04T19:16:12.125Z,21.99
2018-06-04T19:18:40.903Z,22.02
2018-06-04T19:21:09.726Z,21.94
2018-06-04T19:23:38.505Z,21.82
2018-06-04T19:26:07.341Z,21.83
2018-06-04T19:28:36.231Z,21.68
2018-06-04T19:31:05.001Z,21.62
2018-06-04T19:33:33.586Z,21.58
2018-06-04T19:36:02.359Z,21.50
2018-06-04T19:38:31.140Z,21.46
2018-06-04T19:41:00.067Z,21.38
2018-06-04T19:43:28.856Z,21.24
2018-06-04T19:45:57.616Z,21.10
2018-06-04T19:48:26.522Z,21.05
2018-06-04T19:50:55.491Z,20.93
2018-06-04T19:53:24.414Z,20.83
2018-06-04T19:55:53.381Z,20.78
2018-06-04T19:58:23.053Z,20.72
2018-06-04T20:00:51.882Z,20.61
2018-06-04T20:03:21.596Z,20.56
2018-06-04T20:05:50.964Z,20.55
2018-06-04T20:08:19.774Z,20.42
2018-06-04T20:10:48.584Z,20.58
2018-06-04T20:13:17.734Z,20.55
2018-06-04T20:15:46.649Z,20.36
2018-06-04T20:18:15.583Z,20.27
2018-06-04T20:20:45.796Z,20.28
2018-06-04T20:23:14.594Z,20.21
2018-06-04T20:25:43.419Z,20.09
2018-06-04T20:28:12.219Z,19.96
2018-06-04T20:30:41.064Z,19.93
2018-06-04T20:33:09.905Z,19.90
2018-06-04T20:35:38.483Z,19.88
2018-06-04T20:38:07.271Z,20.04
2018-06-04T20:40:36.129Z,20.00
2018-06-04T20:43:05.757Z,19.98
2018-06-04T20:45:34.490Z,20.22
2018-06-04T20:48:03.289Z,20.16
2018-06-04T20:50:32.058Z,19.99
2018-06-04T20:53:00.811Z,19.82
2018-06-04T20:55:29.523Z,19.72
2018-06-04T20:57:58.058Z,19.58
2018-06-04T21:00:27.387Z,19.53
2018-06-04T21:02:56.159Z,19.45
2018-06-04T21:05:24.938Z,19.36
2018-06-04T21:07:53.657Z,19.28
2018-06-04T21:10:22.439Z,19.16
2018-06-04T21:12:51.153Z,19.10
2018-06-04T21:15:20.433Z,19.13
2018-06-04T21:17:49.173Z,18.95
2018-06-04T21:20:17.972Z,18.98
2018-06-04T21:22:46.701Z,18.89
2018-06-04T21:25:15.806Z,18.80
2018-06-04T21:27:44.794Z,18.78
2018-06-04T21:30:13.526Z,18.80
2018-06-04T21:32:42.281Z,18.81
2018-06-04T21:35:11.013Z,18.80
2018-06-04T21:37:39.743Z,19.10
2018-06-04T21:40:08.473Z,19.00
2018-06-04T21:42:37.230Z,18.92
2018-06-04T21:45:05.997Z,18.98
2018-06-04T21:47:34.758Z,18.86
2018-06-04T21:50:03.534Z,18.80
2018-06-04T21:52:32.236Z,18.76
2018-06-04T21:55:00.796Z,18.59
2018-06-04T21:57:29.569Z,18.70
2018-06-04T21:59:58.256Z,18.76
2018-06-04T22:02:26.950Z,18.73
2018-06-04T22:04:55.633Z,19.09
2018-06-04T22:07:24.319Z,19.21
2018-06-04T22:09:53.021Z,19.36
2018-06-04T22:12:21.745Z,19.44
2018-06-04T22:14:50.453Z,19.53
2018-06-04T22:17:19.158Z,19.59
2018-06-04T22:19:47.865Z,19.63
2018-06-04T22:22:16.572Z,19.60
2018-06-04T22:24:45.088Z,19.61
2018-06-04T22:27:13.805Z,19.59
2018-06-04T22:29:42.538Z,19.53
2018-06-04T22:32:11.226Z,19.37
2018-06-04T22:34:39.711Z,19.20
2018-06-04T22:37:08.440Z,19.10
2018-06-04T22:39:37.133Z,19.02
2018-06-04T22:42:05.845Z,18.98
2018-06-04T22:44:34.542Z,19.01
2018-06-04T22:47:03.291Z,18.71
2018-06-04T22:49:32.109Z,18.46
2018-06-04T22:52:00.799Z,18.24
2018-06-04T22:54:29.293Z,18.06
2018-06-04T22:56:57.974Z,18.11
2018-06-04T22:59:26.461Z,18.05
2018-06-04T23:01:55.159Z,18.08
2018-06-04T23:04:23.843Z,18.41
2018-06-04T23:06:52.511Z,18.23
2018-06-04T23:09:20.993Z,18.09
2018-06-04T23:11:49.676Z,17.49
2018-06-04T23:14:18.158Z,18.00
2018-06-04T23:16:46.846Z,17.81
2018-06-04T23:19:15.548Z,17.64
2018-06-04T23:21:44.256Z,17.52
2018-06-04T23:24:12.946Z,17.43
2018-06-04T23:26:41.634Z,17.50
2018-06-04T23:29:10.319Z,17.50
2018-06-04T23:31:39.012Z,17.74
2018-06-04T23:34:07.713Z,17.63
2018-06-04T23:36:36.395Z,17.52
2018-06-04T23:39:08.546Z,17.49
2018-06-04T23:41:37.386Z,17.46
2018-06-04T23:44:06.066Z,17.66
2018-06-04T23:46:34.779Z,17.80
2018-06-04T23:49:03.551Z,18.08
2018-06-04T23:51:32.310Z,17.94
2018-06-04T23:54:00.985Z,17.82
2018-06-04T23:56:29.773Z,17.76
2018-06-04T23:58:58.425Z,17.80
